Terminal Aerodrome Forecast
Issued by NWS

Home | Current Version | Previous Version | Text Only | Print | Product List | Glossary On
Versions: 1 2 3 4 5 6 7 8 9 10 11 12 13 14 15 16
588
FTUS41 KCAR 212320
TAFFVE
TAF
KFVE 212320Z 2200/2224 29008KT P6SM VCTS BKN060CB
      TEMPO 2201/2202 -TSRA OVC040CB
     FM220420 29004KT P6SM SCT060
     FM221400 30010G18KT P6SM FEW050 SCT200=

USA.gov is the U.S. government's official web portal to all federal, state and local government web resources and services.